Time;durP1;ratioP1;P1;durP2;ratioP2;P2;SDS_P1;SDS_P2;PMS_P1;PMS_P2;Temp;Humidity;BMP_temperature;BMP_pressure;BME280_temperature;BME280_humidity;BME280_pressure;Samples;Min_cycle;Max_cycle;Signal;HPM_P1;HPM_P2
2021/09/03 00:01:47;;;;;;;18.92;12.00;;;;;;;13.26;74.88;101248.19;8598031;34;20200;-71
2021/09/03 00:06:52;;;;;;;18.77;12.38;;;;;;;13.12;75.54;101247.56;8598255;34;20268;-71
2021/09/03 00:11:55;;;;;;;18.50;12.32;;;;;;;13.06;76.04;101243.53;8598618;34;20181;-71
2021/09/03 00:16:58;;;;;;;17.65;11.30;;;;;;;12.85;76.03;101246.03;8597466;34;20636;-71
2021/09/03 00:22:03;;;;;;;23.90;13.90;;;;;;;12.88;76.87;101250.34;8598525;34;21542;-72
2021/09/03 00:27:06;;;;;;;24.25;14.73;;;;;;;12.82;77.35;101238.19;8597941;34;20255;-71
2021/09/03 00:32:09;;;;;;;22.30;13.82;;;;;;;12.80;77.72;101240.13;8598446;34;20281;-71
2021/09/03 00:37:14;;;;;;;22.60;12.95;;;;;;;12.73;77.72;101237.06;8598240;34;20548;-71
2021/09/03 00:42:20;;;;;;;21.50;13.95;;;;;;;12.71;78.08;101238.16;8574303;34;20355;-71
2021/09/03 00:47:24;;;;;;;22.52;14.32;;;;;;;12.89;77.85;101225.06;8599076;34;20185;-70
2021/09/03 00:52:29;;;;;;;21.58;13.10;;;;;;;12.85;76.29;101226.31;8603227;34;20189;-72
2021/09/03 00:57:32;;;;;;;20.42;12.98;;;;;;;12.79;76.00;101217.72;8603958;34;20244;-72
2021/09/03 01:02:36;;;;;;;21.27;13.52;;;;;;;12.81;75.61;101210.38;8604609;34;20955;-72
2021/09/03 01:07:41;;;;;;;23.15;13.65;;;;;;;12.74;75.63;101208.25;8602343;34;20192;-72
2021/09/03 01:12:44;;;;;;;21.02;12.65;;;;;;;12.57;75.65;101213.09;8602733;34;20193;-72
2021/09/03 01:17:47;;;;;;;22.25;13.85;;;;;;;12.50;76.16;101206.47;8601593;34;20239;-71
2021/09/03 01:22:51;;;;;;;21.52;13.15;;;;;;;12.47;77.04;101206.69;8601836;34;20184;-71
2021/09/03 01:27:54;;;;;;;26.42;13.75;;;;;;;12.43;76.65;101199.84;8600985;34;20243;-71
2021/09/03 01:32:57;;;;;;;19.25;12.27;;;;;;;12.26;76.67;101202.88;8601562;34;20842;-71
2021/09/03 01:38:05;;;;;;;16.88;10.85;;;;;;;12.10;76.42;101195.13;8601155;34;20153;-71
2021/09/03 01:43:08;;;;;;;16.67;10.32;;;;;;;12.01;76.34;101191.25;8601990;34;20236;-71
2021/09/03 01:48:11;;;;;;;18.75;10.73;;;;;;;11.98;75.90;101193.31;8601090;34;20153;-71
2021/09/03 01:53:16;;;;;;;20.67;11.93;;;;;;;11.88;75.86;101187.78;8601534;34;20154;-71
2021/09/03 01:58:19;;;;;;;18.45;11.80;;;;;;;11.80;76.48;101190.19;8600582;34;20280;-71
2021/09/03 02:03:22;;;;;;;18.88;11.68;;;;;;;11.80;76.13;101190.19;8600932;34;20208;-71
2021/09/03 02:08:27;;;;;;;16.17;11.30;;;;;;;11.73;76.14;101187.91;8600940;34;20653;-71
2021/09/03 02:13:29;;;;;;;17.33;11.15;;;;;;;11.72;75.90;101188.91;8602607;34;20158;-72
2021/09/03 02:18:33;;;;;;;16.25;10.60;;;;;;;11.63;75.60;101173.44;8602410;34;20227;-72
2021/09/03 02:23:37;;;;;;;16.10;10.68;;;;;;;11.58;75.04;101180.97;8602932;34;20353;-73
2021/09/03 02:28:40;;;;;;;16.90;10.02;;;;;;;11.53;75.35;101177.75;8601918;34;20561;-72
2021/09/03 02:33:44;;;;;;;16.98;9.20;;;;;;;11.45;75.32;101169.38;8602605;34;21324;-72
2021/09/03 02:38:48;;;;;;;16.05;10.77;;;;;;;11.41;75.65;101171.44;8601411;34;20623;-72
2021/09/03 02:43:51;;;;;;;17.85;11.27;;;;;;;11.40;76.23;101167.00;8604277;34;21095;-72
2021/09/03 02:48:54;;;;;;;19.77;12.82;;;;;;;11.68;76.54;101155.13;8606100;34;20435;-72
2021/09/03 02:53:58;;;;;;;23.70;13.00;;;;;;;11.69;76.90;101158.66;8601518;34;20584;-70
2021/09/03 02:59:01;;;;;;;21.48;14.00;;;;;;;11.76;76.91;101159.06;8599654;34;20717;-70
2021/09/03 03:04:05;;;;;;;23.50;15.00;;;;;;;11.64;76.92;101167.06;8600121;34;20219;-72
2021/09/03 03:09:09;;;;;;;26.05;14.73;;;;;;;11.42;77.61;101162.38;8599651;33;20286;-72
2021/09/03 03:14:16;;;;;;;25.33;14.60;;;;;;;11.41;78.28;101170.56;8598996;34;20189;-71
2021/09/03 03:19:19;;;;;;;39.25;13.82;;;;;;;11.38;78.45;101157.34;8599402;34;20188;-70
2021/09/03 03:24:23;;;;;;;56.63;15.80;;;;;;;10.98;79.68;101152.09;8598774;34;20615;-71
2021/09/03 03:29:26;;;;;;;74.70;16.92;;;;;;;10.91;80.37;101146.28;8599447;34;21471;-70
2021/09/03 03:34:29;;;;;;;38.92;15.57;;;;;;;10.89;80.08;101141.97;8599169;34;20215;-71
2021/09/03 03:39:33;;;;;;;46.72;14.25;;;;;;;10.91;79.79;101148.13;8599722;34;20560;-70
2021/09/03 03:44:36;;;;;;;26.77;13.30;;;;;;;10.53;80.87;101140.88;8598851;34;20199;-72
2021/09/03 03:49:39;;;;;;;34.08;13.52;;;;;;;10.63;81.36;101133.06;8598765;34;20774;-72
2021/09/03 03:54:44;;;;;;;19.70;13.15;;;;;;;10.74;80.69;101134.03;8598312;34;20716;-72
2021/09/03 03:59:47;;;;;;;17.52;11.63;;;;;;;10.86;79.67;101128.75;8598161;34;20197;-72
2021/09/03 04:04:50;;;;;;;17.63;10.65;;;;;;;10.53;78.23;101136.41;8598169;34;20705;-71
2021/09/03 04:09:54;;;;;;;17.42;10.57;;;;;;;10.19;79.16;101136.97;8598277;34;20190;-71
2021/09/03 04:14:57;;;;;;;19.90;11.50;;;;;;;10.12;80.29;101123.97;8597558;34;20252;-72
2021/09/03 04:20:00;;;;;;;47.45;13.30;;;;;;;10.22;80.68;101124.19;8598061;34;20275;-72
2021/09/03 04:25:06;;;;;;;67.82;15.93;;;;;;;10.20;80.87;101128.78;8602007;34;20179;-70
2021/09/03 04:30:12;;;;;;;26.75;12.35;;;;;;;10.29;81.09;101121.97;8603199;34;20504;-71
2021/09/03 04:35:15;;;;;;;21.95;13.02;;;;;;;10.23;81.28;101125.03;8603158;34;20193;-71
2021/09/03 04:40:20;;;;;;;76.55;13.60;;;;;;;10.35;81.05;101126.91;8603131;34;20185;-71
2021/09/03 04:45:23;;;;;;;62.17;13.40;;;;;;;10.29;81.47;101128.19;8602393;34;20649;-72
2021/09/03 04:50:26;;;;;;;45.75;12.15;;;;;;;10.29;80.76;101121.97;8602676;34;20181;-71
2021/09/03 04:55:31;;;;;;;15.13;10.43;;;;;;;10.30;80.94;101121.00;8602798;34;21603;-72
2021/09/03 05:00:34;;;;;;;26.85;11.95;;;;;;;10.36;80.53;101115.19;8603171;34;20177;-72
2021/09/03 05:05:37;;;;;;;16.00;10.70;;;;;;;10.66;80.17;101122.09;8603055;34;20844;-72
2021/09/03 05:10:42;;;;;;;12.13;9.15;;;;;;;10.99;79.66;101118.84;8603128;34;20184;-71
2021/09/03 05:15:45;;;;;;;13.32;9.18;;;;;;;11.11;79.36;101114.41;8603303;34;20193;-72
2021/09/03 05:20:48;;;;;;;32.08;11.20;;;;;;;11.09;78.92;101106.47;8603222;34;20662;-73
2021/09/03 05:25:53;;;;;;;24.35;10.20;;;;;;;10.96;79.30;101113.69;8602359;34;20146;-71
2021/09/03 05:30:56;;;;;;;24.42;11.43;;;;;;;11.19;79.94;101122.84;8601642;34;20150;-71
2021/09/03 05:35:59;;;;;;;57.13;13.88;;;;;;;11.21;81.11;101124.44;8601059;34;20231;-71
2021/09/03 05:41:06;;;;;;;68.63;16.50;;;;;;;11.48;81.13;101116.19;8601334;34;20252;-71
2021/09/03 05:46:09;;;;;;;80.05;16.77;;;;;;;11.71;80.45;101119.91;8601224;34;20678;-71
2021/09/03 05:51:12;;;;;;;65.18;15.70;;;;;;;11.63;79.02;101116.91;8601885;34;20219;-72
2021/09/03 05:56:16;;;;;;;51.67;14.27;;;;;;;11.33;79.61;101128.09;8601081;34;20498;-72
2021/09/03 06:01:20;;;;;;;41.47;15.35;;;;;;;11.04;80.62;101122.94;8601741;34;20545;-72
2021/09/03 06:06:23;;;;;;;28.42;14.70;;;;;;;11.35;81.34;101118.06;8601704;34;20284;-71
2021/09/03 06:11:27;;;;;;;18.70;12.93;;;;;;;11.65;80.28;101128.41;8601273;34;20436;-72
2021/09/03 06:16:30;;;;;;;32.78;13.63;;;;;;;11.97;79.85;101125.16;8600748;34;20221;-72
2021/09/03 06:21:33;;;;;;;24.13;13.55;;;;;;;12.28;78.60;101118.31;8601462;34;20185;-72
2021/09/03 06:26:38;;;;;;;38.25;14.45;;;;;;;12.49;77.63;101109.59;8600694;34;20674;-72
2021/09/03 06:31:41;;;;;;;37.15;14.07;;;;;;;12.79;77.00;101120.66;8600593;34;20263;-72
2021/09/03 06:36:44;;;;;;;33.63;14.13;;;;;;;12.94;75.53;101105.09;8600107;34;20207;-71
2021/09/03 06:41:48;;;;;;;49.67;14.68;;;;;;;12.94;75.55;101107.78;8600352;34;20630;-72
2021/09/03 06:46:51;;;;;;;77.97;15.38;;;;;;;13.14;75.23;101100.81;8599294;34;20623;-72
2021/09/03 06:51:54;;;;;;;31.55;13.05;;;;;;;13.44;74.88;101100.19;8599169;34;20166;-72
2021/09/03 06:56:59;;;;;;;17.52;11.80;;;;;;;13.56;73.49;101094.75;8597358;34;20857;-71
2021/09/03 07:02:02;;;;;;;8.90;7.22;;;;;;;13.59;74.15;101097.19;8599103;34;20533;-72
2021/09/03 07:07:06;;;;;;;16.02;10.30;;;;;;;13.94;73.63;101108.63;8596037;34;20424;-71
2021/09/03 07:12:27;;;;;;;11.13;8.15;;;;;;;14.37;71.60;101105.00;8599000;34;20678;-71
2021/09/03 07:17:30;;;;;;;10.88;6.75;;;;;;;14.45;70.70;101109.75;8599283;34;20275;-72
2021/09/03 07:22:33;;;;;;;23.50;12.05;;;;;;;14.55;70.84;101115.22;8586726;34;20177;-72
2021/09/03 07:27:37;;;;;;;42.47;13.88;;;;;;;14.43;70.71;101105.50;8597758;34;20476;-72
2021/09/03 07:32:43;;;;;;;23.70;12.15;;;;;;;14.49;70.76;101110.34;8599123;34;20714;-72
2021/09/03 07:37:46;;;;;;;18.77;12.90;;;;;;;14.62;70.68;101089.38;8598569;34;20189;-71
2021/09/03 07:42:52;;;;;;;27.52;14.90;;;;;;;14.70;70.50;101096.81;8598915;34;20430;-72
2021/09/03 07:47:56;;;;;;;20.90;13.30;;;;;;;14.90;70.45;101095.06;8598050;34;20216;-72
2021/09/03 07:53:00;;;;;;;21.13;13.95;;;;;;;15.20;69.56;101097.75;8599075;34;20201;-72
2021/09/03 07:58:21;;;;;;;23.48;14.57;;;;;;;15.55;68.35;101101.00;8601113;34;20211;-72
2021/09/03 08:03:24;;;;;;;21.30;14.57;;;;;;;15.03;69.80;101096.56;8604071;34;20630;-73
2021/09/03 08:08:27;;;;;;;20.05;13.68;;;;;;;15.53;70.11;101092.19;8603869;34;20189;-72
2021/09/03 08:13:31;;;;;;;19.23;14.35;;;;;;;16.31;68.38;101095.78;8604672;34;20272;-72
2021/09/03 08:18:34;;;;;;;21.58;15.93;;;;;;;17.11;65.25;101083.56;8603019;34;20674;-72
2021/09/03 08:23:37;;;;;;;19.92;14.38;;;;;;;17.77;64.09;101081.59;8604193;34;20987;-72
2021/09/03 08:28:42;;;;;;;23.77;14.60;;;;;;;18.35;61.84;101079.28;8604045;34;21655;-72
2021/09/03 08:33:45;;;;;;;22.48;15.13;;;;;;;18.46;61.40;101071.88;8602926;34;20671;-72
2021/09/03 08:38:48;;;;;;;19.25;14.02;;;;;;;18.51;60.85;101075.84;8602812;34;20185;-72
2021/09/03 08:43:57;;;;;;;20.67;14.15;;;;;;;19.21;59.73;101078.44;8603150;34;20654;-72
2021/09/03 08:49:03;;;;;;;19.50;13.95;;;;;;;19.64;59.50;101079.28;8602958;34;20279;-72
2021/09/03 08:54:06;;;;;;;18.40;14.27;;;;;;;19.85;59.39;101091.56;8602061;34;20154;-72
2021/09/03 08:59:11;;;;;;;22.15;14.43;;;;;;;20.05;58.59;101076.63;8602242;34;20181;-72
2021/09/03 09:04:17;;;;;;;21.58;14.98;;;;;;;20.50;57.49;101075.25;8603024;34;20193;-72
2021/09/03 09:09:31;;;;;;;21.75;16.35;;;;;;;20.53;56.77;101063.97;8602701;34;20157;-72
2021/09/03 09:15:07;;;;;;;21.73;14.85;;;;;;;20.60;57.37;101058.69;8602379;34;20762;-72
2021/09/03 09:20:14;;;;;;;17.48;12.88;;;;;;;21.32;56.21;101058.63;8592885;34;20268;-72
2021/09/03 09:25:20;;;;;;;19.73;14.05;;;;;;;22.02;53.16;101059.53;8602524;34;20686;-72
2021/09/03 09:30:27;;;;;;;21.48;14.82;;;;;;;22.46;51.91;101050.63;8602938;34;20212;-73
2021/09/03 09:35:30;;;;;;;22.55;15.90;;;;;;;22.65;52.25;101050.06;8603198;34;20169;-72
2021/09/03 09:40:44;;;;;;;23.25;15.02;;;;;;;22.75;51.57;101047.06;8603054;34;20357;-71
2021/09/03 09:46:27;;;;;;;20.90;14.48;;;;;;;23.13;50.92;101036.03;8601215;34;21605;-72
2021/09/03 09:51:33;;;;;;;20.73;14.57;;;;;;;23.55;49.80;101040.72;8601762;34;20193;-71
2021/09/03 09:56:40;;;;;;;21.20;14.45;;;;;;;23.98;48.19;101029.78;8600919;34;20170;-72
2021/09/03 10:01:47;;;;;;;21.58;14.10;;;;;;;24.28;46.93;101030.47;8600045;34;20644;-72
2021/09/03 10:06:54;;;;;;;20.92;14.85;;;;;;;24.49;46.68;101031.47;8596098;34;20184;-71
2021/09/03 10:11:59;;;;;;;21.77;13.68;;;;;;;24.65;44.33;101024.81;8597627;34;20173;-72
2021/09/03 10:17:04;;;;;;;18.38;13.23;;;;;;;24.50;44.92;101030.44;8598825;34;20189;-72
2021/09/03 10:22:12;;;;;;;20.38;13.73;;;;;;;24.89;45.47;101015.25;8594976;34;20265;-72
2021/09/03 10:27:16;;;;;;;18.75;13.52;;;;;;;24.89;44.52;101009.75;8599613;34;20444;-72
2021/09/03 10:32:26;;;;;;;20.27;12.77;;;;;;;25.17;44.89;101007.78;8600079;34;20189;-72
2021/09/03 10:37:38;;;;;;;19.15;12.73;;;;;;;25.68;43.61;100995.47;8599656;34;20213;-72
2021/09/03 10:42:53;;;;;;;18.50;11.85;;;;;;;25.31;44.48;100999.56;8599797;34;20213;-72
2021/09/03 10:48:13;;;;;;;15.80;11.15;;;;;;;26.14;42.43;100991.88;8600040;34;20184;-72
2021/09/03 10:53:32;;;;;;;18.58;12.13;;;;;;;26.13;42.32;100984.66;8599679;34;20142;-72
2021/09/03 10:58:49;;;;;;;16.05;11.52;;;;;;;26.53;42.12;100984.66;8599213;34;20231;-72
2021/09/03 11:03:57;;;;;;;19.05;11.38;;;;;;;26.49;41.21;100989.75;8599719;34;20184;-72
2021/09/03 11:09:03;;;;;;;15.00;10.55;;;;;;;27.07;40.54;100972.41;8599230;34;20228;-72
2021/09/03 11:14:10;;;;;;;15.65;11.18;;;;;;;26.91;40.46;100972.91;8598494;34;20146;-72
2021/09/03 11:19:16;;;;;;;15.95;11.32;;;;;;;27.12;40.08;100972.56;8598944;34;20915;-72
2021/09/03 11:24:22;;;;;;;18.65;12.07;;;;;;;27.44;37.70;100967.09;8599043;34;20422;-72
2021/09/03 11:29:28;;;;;;;14.32;10.27;;;;;;;28.82;37.29;100968.81;8598888;34;20242;-72
2021/09/03 11:34:52;;;;;;;14.18;11.20;;;;;;;27.87;36.68;100966.38;8597846;34;20184;-72
2021/09/03 11:39:58;;;;;;;14.45;9.88;;;;;;;28.65;37.17;100965.00;8598725;34;20185;-72
2021/09/03 11:45:04;;;;;;;12.43;9.68;;;;;;;28.79;37.21;100960.16;8598056;34;20181;-72
2021/09/03 11:50:15;;;;;;;9.32;7.90;;;;;;;29.11;36.38;100958.91;8598538;34;20204;-72
2021/09/03 11:55:18;;;;;;;11.25;8.55;;;;;;;29.06;35.23;100952.34;8597906;34;20180;-72
2021/09/03 12:00:24;;;;;;;14.82;9.50;;;;;;;29.46;36.03;100954.59;8598568;34;20851;-72
2021/09/03 12:05:28;;;;;;;11.80;8.73;;;;;;;29.95;33.76;100952.50;8598622;34;20181;-72
2021/09/03 12:10:41;;;;;;;14.90;9.70;;;;;;;28.63;35.74;100939.50;8598301;34;20223;-72
2021/09/03 12:15:46;;;;;;;11.95;7.70;;;;;;;28.38;37.85;100943.16;8598311;34;21040;-72
2021/09/03 12:20:55;;;;;;;11.50;8.18;;;;;;;28.77;35.24;100927.22;8598615;34;21701;-72
2021/09/03 12:26:04;;;;;;;16.30;9.05;;;;;;;28.39;36.79;100925.53;8598097;34;21084;-72
2021/09/03 12:31:11;;;;;;;9.88;7.25;;;;;;;30.11;34.81;100917.72;8598042;34;20238;-73
2021/09/03 12:36:21;;;;;;;13.95;9.73;;;;;;;30.21;34.40;100927.13;8597087;34;20438;-72
2021/09/03 12:41:30;;;;;;;16.25;10.25;;;;;;;30.12;34.81;100923.03;8598304;34;20218;-72
2021/09/03 12:46:36;;;;;;;11.70;8.70;;;;;;;30.06;35.12;100915.69;8602091;34;20490;-72
2021/09/03 12:51:45;;;;;;;29.67;10.20;;;;;;;30.56;34.81;100900.47;8602469;34;20168;-72
2021/09/03 12:56:48;;;;;;;14.80;9.75;;;;;;;30.91;34.22;100892.88;8602018;34;20562;-72
2021/09/03 13:01:51;;;;;;;11.50;8.27;;;;;;;30.58;33.05;100893.59;8602553;34;20315;-72
2021/09/03 13:06:58;;;;;;;10.95;7.10;;;;;;;30.78;34.23;100882.09;8601876;34;20270;-72
2021/09/03 13:12:02;;;;;;;9.43;6.55;;;;;;;32.95;29.56;100872.13;8602802;34;20685;-73
2021/09/03 13:17:05;;;;;;;9.63;6.72;;;;;;;33.93;28.63;100883.00;8602280;34;21626;-72
2021/09/03 13:22:20;;;;;;;8.75;6.28;;;;;;;30.82;30.74;100868.56;8602025;34;20208;-72
2021/09/03 13:27:23;;;;;;;9.18;6.85;;;;;;;31.97;29.63;100853.34;8602216;34;20720;-72
2021/09/03 13:32:26;;;;;;;9.40;6.75;;;;;;;32.50;29.69;100862.13;8580261;34;20146;-72
2021/09/03 13:37:31;;;;;;;9.27;7.20;;;;;;;30.19;31.61;100850.91;8601154;34;20180;-72
2021/09/03 13:42:39;;;;;;;9.30;6.40;;;;;;;29.48;34.16;100858.31;8601974;34;20453;-73
2021/09/03 13:47:42;;;;;;;9.93;6.80;;;;;;;29.38;34.47;100845.09;8578359;34;20188;-73
2021/09/03 13:52:47;;;;;;;10.85;6.80;;;;;;;30.23;32.12;100841.03;8602363;34;20874;-71
2021/09/03 13:57:50;;;;;;;7.28;5.55;;;;;;;29.48;32.02;100831.47;8600785;34;20195;-72
2021/09/03 14:02:53;;;;;;;7.00;5.03;;;;;;;29.70;31.24;100829.00;8577838;34;20184;-71
2021/09/03 14:07:58;;;;;;;8.50;5.95;;;;;;;30.47;31.39;100817.69;8601343;34;20199;-71
2021/09/03 14:13:01;;;;;;;7.95;5.57;;;;;;;29.11;32.70;100817.84;8601325;34;20694;-71
2021/09/03 14:18:07;;;;;;;6.95;5.90;;;;;;;29.06;32.99;100816.84;8599839;34;21471;-72
2021/09/03 14:23:12;;;;;;;6.65;5.95;;;;;;;29.30;32.47;100812.25;8601042;34;20158;-71
2021/09/03 14:28:15;;;;;;;10.80;5.80;;;;;;;30.30;31.48;100800.16;8600531;34;20262;-71
2021/09/03 14:33:18;;;;;;;6.93;5.50;;;;;;;30.47;30.55;100794.66;8600170;34;20982;-71
2021/09/03 14:38:22;;;;;;;7.68;5.55;;;;;;;29.01;31.28;100798.19;8597540;33;21471;-71
2021/09/03 14:43:25;;;;;;;8.93;5.35;;;;;;;29.77;32.77;100784.59;8598402;34;20441;-71
2021/09/03 14:48:29;;;;;;;9.13;6.18;;;;;;;29.14;33.44;100781.44;8594065;34;20425;-71
2021/09/03 14:53:35;;;;;;;9.00;5.93;;;;;;;29.85;32.57;100766.78;8597621;34;20177;-71
2021/09/03 14:58:38;;;;;;;9.88;5.72;;;;;;;29.81;33.12;100769.16;8591556;34;20150;-71
2021/09/03 15:03:41;;;;;;;7.68;6.22;;;;;;;30.18;32.55;100769.72;8598334;34;20189;-71
2021/09/03 15:08:45;;;;;;;8.18;5.80;;;;;;;30.10;32.23;100763.69;8597249;34;20283;-71
2021/09/03 15:13:48;;;;;;;9.52;5.60;;;;;;;29.76;32.87;100753.31;8599015;34;20704;-72
2021/09/03 15:18:51;;;;;;;6.90;4.65;;;;;;;29.84;32.98;100749.31;8598942;34;20591;-71
2021/09/03 15:23:56;;;;;;;8.45;5.50;;;;;;;29.68;32.51;100750.91;8598529;34;20181;-72
2021/09/03 15:28:59;;;;;;;10.82;6.22;;;;;;;29.47;33.63;100741.25;8600003;34;20185;-71
2021/09/03 15:34:02;;;;;;;10.43;5.63;;;;;;;29.50;33.53;100743.53;8601219;34;20262;-72
2021/09/03 15:39:07;;;;;;;11.35;7.50;;;;;;;29.02;33.80;100739.06;8600195;34;20239;-72
2021/09/03 15:44:10;;;;;;;17.70;10.27;;;;;;;28.20;36.60;100728.59;8573072;34;20242;-73
2021/09/03 15:49:13;;;;;;;12.60;8.45;;;;;;;28.55;35.68;100727.91;8598902;34;20181;-73
2021/09/03 15:54:17;;;;;;;9.85;6.63;;;;;;;28.75;35.04;100733.13;8598569;34;20181;-72
2021/09/03 15:59:20;;;;;;;9.48;5.88;;;;;;;28.79;35.05;100726.03;8598660;34;20145;-72
2021/09/03 16:04:23;;;;;;;8.18;6.15;;;;;;;28.55;35.61;100716.88;8598677;34;20787;-72
2021/09/03 16:09:31;;;;;;;8.45;6.28;;;;;;;28.54;34.68;100714.31;8599111;34;20154;-73
2021/09/03 16:14:34;;;;;;;7.13;6.25;;;;;;;28.24;35.21;100707.69;8597594;34;20193;-72
2021/09/03 16:19:37;;;;;;;9.13;7.32;;;;;;;27.94;36.04;100709.56;8601200;34;20193;-72
2021/09/03 16:24:41;;;;;;;9.82;6.30;;;;;;;27.38;36.86;100709.53;8603090;34;20315;-72
2021/09/03 16:29:44;;;;;;;10.02;6.70;;;;;;;27.32;37.54;100704.94;8603654;34;20150;-72
2021/09/03 16:34:47;;;;;;;10.15;7.28;;;;;;;26.94;37.80;100705.09;8603244;34;20289;-72
2021/09/03 16:39:52;;;;;;;10.07;6.60;;;;;;;26.63;38.49;100711.44;8601831;34;20177;-72
2021/09/03 16:44:55;;;;;;;9.45;6.70;;;;;;;26.41;39.04;100706.31;8603106;34;20192;-72
2021/09/03 16:49:59;;;;;;;10.57;7.47;;;;;;;26.04;39.45;100706.03;8603344;34;20591;-72
2021/09/03 16:55:05;;;;;;;9.23;6.63;;;;;;;25.54;40.11;100702.19;8602966;34;20253;-72
2021/09/03 17:00:11;;;;;;;8.40;6.57;;;;;;;25.19;40.65;100702.47;8602536;34;20549;-72
2021/09/03 17:05:16;;;;;;;9.50;6.93;;;;;;;24.88;41.73;100711.34;8601613;34;20316;-72
2021/09/03 17:10:20;;;;;;;9.90;7.28;;;;;;;24.44;42.27;100713.59;8603319;34;20181;-72
2021/09/03 17:15:23;;;;;;;12.13;7.25;;;;;;;23.96;43.31;100710.03;8602359;34;20296;-72
2021/09/03 17:20:26;;;;;;;15.55;9.07;;;;;;;23.36;45.08;100705.03;8602551;34;20222;-71
2021/09/03 17:25:31;;;;;;;15.85;9.48;;;;;;;22.87;46.11;100699.59;8602680;34;20238;-72
2021/09/03 17:30:35;;;;;;;17.65;8.80;;;;;;;22.45;47.31;100701.31;8601782;34;20315;-72
2021/09/03 17:35:40;;;;;;;14.32;8.80;;;;;;;22.10;48.03;100701.97;8601875;34;20138;-72
2021/09/03 17:40:45;;;;;;;12.45;8.13;;;;;;;21.67;49.18;100690.03;8601883;34;20188;-71
2021/09/03 17:45:48;;;;;;;16.45;9.88;;;;;;;21.44;49.60;100687.41;8601057;34;20216;-72
2021/09/03 17:50:51;;;;;;;19.38;9.27;;;;;;;21.03;51.17;100696.00;8601601;34;20224;-71
2021/09/03 17:55:55;;;;;;;17.80;9.88;;;;;;;20.71;51.97;100705.34;8599896;34;20208;-72
2021/09/03 18:00:58;;;;;;;15.20;8.60;;;;;;;20.36;53.41;100702.19;8578410;34;20203;-72
2021/09/03 18:06:02;;;;;;;17.90;9.60;;;;;;;20.22;53.59;100701.06;8601431;34;20207;-71
2021/09/03 18:11:07;;;;;;;16.98;9.70;;;;;;;19.96;54.89;100711.41;8600223;34;20189;-71
2021/09/03 18:16:11;;;;;;;18.13;9.02;;;;;;;19.75;55.43;100706.59;8600652;34;20185;-71
2021/09/03 18:21:14;;;;;;;14.48;9.85;;;;;;;19.59;55.97;100715.69;8600690;34;20671;-71
2021/09/03 18:26:18;;;;;;;19.38;11.57;;;;;;;19.37;56.71;100714.53;8600835;34;20729;-71
2021/09/03 18:31:21;;;;;;;17.95;10.02;;;;;;;19.22;57.21;100717.09;8601737;34;20605;-71
2021/09/03 18:36:24;;;;;;;18.63;9.40;;;;;;;19.05;57.63;100726.31;8600334;34;20185;-72
2021/09/03 18:41:29;;;;;;;20.17;11.73;;;;;;;18.91;57.99;100725.13;8599718;34;20594;-72
2021/09/03 18:46:32;;;;;;;20.08;11.15;;;;;;;18.89;58.08;100735.31;8600345;34;20184;-71
2021/09/03 18:51:35;;;;;;;21.58;12.30;;;;;;;18.78;58.20;100740.06;8600344;34;20189;-71
2021/09/03 18:56:39;;;;;;;18.77;10.55;;;;;;;18.67;58.59;100734.09;8575879;34;20302;-71
2021/09/03 19:01:42;;;;;;;16.65;10.63;;;;;;;18.51;59.32;100741.25;8599817;34;20216;-71
2021/09/03 19:06:46;;;;;;;16.33;10.82;;;;;;;18.42;59.85;100744.94;8600828;34;20424;-72
2021/09/03 19:11:51;;;;;;;20.58;11.23;;;;;;;18.33;60.23;100745.94;8577292;34;21828;-71
2021/09/03 19:16:55;;;;;;;16.05;10.65;;;;;;;18.27;60.65;100744.75;8603547;34;20178;-71
2021/09/03 19:21:59;;;;;;;20.52;11.07;;;;;;;18.12;61.26;100755.41;8600733;34;20597;-71
2021/09/03 19:27:04;;;;;;;17.67;11.15;;;;;;;17.95;61.92;100753.59;8600639;34;20682;-71
2021/09/03 19:32:08;;;;;;;21.73;12.00;;;;;;;17.83;62.46;100763.94;8601346;34;20234;-71
2021/09/03 19:37:11;;;;;;;19.48;11.43;;;;;;;17.77;62.74;100758.28;8602796;34;20145;-71
2021/09/03 19:42:16;;;;;;;19.48;11.48;;;;;;;17.61;63.44;100756.34;8602827;34;20859;-71
2021/09/03 19:47:19;;;;;;;19.45;12.55;;;;;;;17.54;63.50;100752.56;8551574;34;21289;-71
2021/09/03 19:52:22;;;;;;;21.58;11.98;;;;;;;17.39;64.38;100753.16;8546338;34;20957;-71
2021/09/03 19:57:27;;;;;;;20.85;12.65;;;;;;;17.29;64.85;100752.41;8552260;34;20428;-71
2021/09/03 20:02:30;;;;;;;23.17;13.35;;;;;;;17.23;65.40;100763.91;8552357;34;20247;-71
2021/09/03 20:07:33;;;;;;;26.25;13.70;;;;;;;17.12;65.36;100756.84;8552443;34;20186;-71
2021/09/03 20:12:37;;;;;;;18.17;11.77;;;;;;;17.09;65.42;100768.03;8552772;34;20285;-71
2021/09/03 20:17:41;;;;;;;22.98;13.07;;;;;;;16.92;65.75;100772.47;8551878;34;20168;-71
2021/09/03 20:22:44;;;;;;;22.73;13.38;;;;;;;16.72;66.50;100777.19;8552537;34;20307;-71
2021/09/03 20:27:49;;;;;;;28.02;13.25;;;;;;;16.54;67.40;100771.75;8551637;34;20302;-71
2021/09/03 20:32:52;;;;;;;27.58;13.30;;;;;;;16.52;67.51;100781.91;8551965;34;20276;-71
2021/09/03 20:37:55;;;;;;;23.75;13.25;;;;;;;16.39;67.73;100781.41;8552040;34;20186;-71
2021/09/03 20:43:00;;;;;;;27.80;14.00;;;;;;;16.35;67.79;100774.63;8552000;34;20273;-70
2021/09/03 20:48:03;;;;;;;22.52;13.13;;;;;;;16.20;68.35;100782.34;8551436;34;20221;-71
2021/09/03 20:53:06;;;;;;;24.40;13.93;;;;;;;16.19;68.55;100790.66;8551696;34;20659;-72
2021/09/03 20:58:10;;;;;;;25.67;13.60;;;;;;;16.00;68.83;100780.75;8550858;34;20208;-72
2021/09/03 21:03:13;;;;;;;23.42;12.57;;;;;;;15.90;69.01;100784.34;8551110;34;21103;-72
2021/09/03 21:08:17;;;;;;;24.27;13.35;;;;;;;15.81;69.12;100779.84;8546350;34;20185;-70
2021/09/03 21:13:21;;;;;;;26.50;13.80;;;;;;;15.75;69.23;100777.75;8576455;34;20600;-71
2021/09/03 21:18:24;;;;;;;23.75;12.15;;;;;;;15.67;69.00;100785.75;8596101;34;20666;-71
2021/09/03 21:23:27;;;;;;;25.02;12.57;;;;;;;15.55;69.12;100789.63;8600045;34;20239;-71
2021/09/03 21:28:31;;;;;;;21.85;12.38;;;;;;;15.38;69.84;100786.66;8577810;34;20193;-71
2021/09/03 21:33:34;;;;;;;26.38;13.30;;;;;;;15.39;69.68;100784.84;8601844;34;20160;-71
2021/09/03 21:38:38;;;;;;;24.92;13.30;;;;;;;15.27;69.80;100792.22;8601857;34;20794;-71
2021/09/03 21:43:42;;;;;;;24.88;13.07;;;;;;;15.21;69.97;100801.78;8602341;34;20291;-71
2021/09/03 21:48:47;;;;;;;24.50;12.18;;;;;;;15.09;70.07;100794.81;8601855;34;20712;-71
2021/09/03 21:53:50;;;;;;;24.42;12.43;;;;;;;14.96;70.22;100792.41;8602127;34;20248;-71
2021/09/03 21:58:54;;;;;;;22.90;11.88;;;;;;;14.86;70.74;100796.09;8601420;34;20245;-71
2021/09/03 22:03:57;;;;;;;26.08;12.85;;;;;;;14.88;70.42;100797.66;8601330;34;20381;-71
2021/09/03 22:09:00;;;;;;;22.20;11.80;;;;;;;14.70;70.94;100792.13;8601219;34;20445;-71
2021/09/03 22:14:16;;;;;;;27.30;12.60;;;;;;;14.55;71.32;100801.63;8599963;34;20255;-71
2021/09/03 22:19:19;;;;;;;24.95;12.27;;;;;;;14.50;71.46;100807.44;8600786;34;20251;-71
2021/09/03 22:24:22;;;;;;;23.65;12.32;;;;;;;14.43;71.47;100811.72;8600368;34;20185;-71
2021/09/03 22:29:26;;;;;;;23.25;12.57;;;;;;;14.38;71.74;100809.44;8600050;34;20976;-71
2021/09/03 22:34:29;;;;;;;25.50;12.88;;;;;;;14.36;71.40;100808.66;8599564;34;20239;-72
2021/09/03 22:39:32;;;;;;;24.50;12.25;;;;;;;14.27;71.95;100801.41;8602110;34;20215;-71
2021/09/03 22:44:36;;;;;;;22.05;13.05;;;;;;;14.36;72.04;100814.06;8601661;34;20456;-70
2021/09/03 22:49:39;;;;;;;24.58;12.23;;;;;;;14.47;71.65;100806.88;8600871;34;20185;-71
2021/09/03 22:54:42;;;;;;;29.17;13.25;;;;;;;14.60;71.55;100813.72;8599391;34;20244;-71
2021/09/03 22:59:47;;;;;;;24.83;12.30;;;;;;;14.74;71.30;100811.63;8599481;34;20158;-71
2021/09/03 23:04:51;;;;;;;23.75;12.05;;;;;;;14.79;71.10;100806.66;8599376;34;20590;-71
2021/09/03 23:09:54;;;;;;;21.75;11.85;;;;;;;14.81;70.98;100802.81;8601820;34;20193;-71